createdAt,value
2022-11-15T00:00:53.947Z,61.42
2022-11-15T00:03:24.100Z,61.45
2022-11-15T00:05:51.320Z,60.87
2022-11-15T00:08:18.288Z,61.48
2022-11-15T00:10:55.535Z,60.63
2022-11-15T00:13:22.139Z,61.30
2022-11-15T00:15:48.739Z,61.25
2022-11-15T00:18:15.913Z,61.47
2022-11-15T00:20:42.890Z,61.42
2022-11-15T00:23:10.202Z,61.80
2022-11-15T00:25:36.883Z,61.49
2022-11-15T00:28:04.235Z,61.57
2022-11-15T00:30:31.087Z,61.26
2022-11-15T00:32:57.762Z,61.50
2022-11-15T00:35:24.596Z,61.05
2022-11-15T00:37:53.669Z,61.42
2022-11-15T00:40:20.265Z,60.88
2022-11-15T00:42:46.873Z,60.66
2022-11-15T00:45:13.467Z,61.48
2022-11-15T00:47:40.059Z,61.26
2022-11-15T00:50:06.975Z,61.59
2022-11-15T00:52:33.596Z,62.12
2022-11-15T00:55:00.320Z,61.68
2022-11-15T00:57:26.904Z,61.80
2022-11-15T00:59:53.700Z,61.37
2022-11-15T01:02:20.436Z,61.59
2022-11-15T01:04:47.039Z,62.10
2022-11-15T01:07:14.173Z,62.13
2022-11-15T01:09:40.926Z,61.62
2022-11-15T01:12:07.682Z,61.48
2022-11-15T01:14:34.316Z,61.34
2022-11-15T01:17:00.940Z,60.99
2022-11-15T01:19:27.593Z,61.41
2022-11-15T01:21:54.241Z,61.64
2022-11-15T01:24:20.817Z,62.09
2022-11-15T01:26:47.441Z,61.80
2022-11-15T01:29:14.034Z,61.88
2022-11-15T01:31:40.675Z,62.22
2022-11-15T01:34:07.345Z,61.94
2022-11-15T01:36:33.984Z,62.26
2022-11-15T01:39:00.764Z,61.94
2022-11-15T01:41:34.130Z,61.23
2022-11-15T01:44:31.625Z,61.35
2022-11-15T01:47:02.484Z,61.32
2022-11-15T01:49:34.016Z,61.36
2022-11-15T01:52:04.326Z,61.45
2022-11-15T01:54:31.996Z,61.62
2022-11-15T01:57:08.202Z,61.77
2022-11-15T01:59:35.037Z,61.33
2022-11-15T02:02:02.049Z,61.17
2022-11-15T02:04:40.592Z,61.11
2022-11-15T02:07:10.969Z,61.84
2022-11-15T02:09:38.675Z,61.84
2022-11-15T02:12:07.407Z,61.63
2022-11-15T02:14:34.670Z,61.29
2022-11-15T02:17:10.403Z,60.44
2022-11-15T02:19:55.696Z,60.89
2022-11-15T02:22:46.911Z,61.28
2022-11-15T02:25:19.236Z,61.58
2022-11-15T02:27:48.574Z,61.75
2022-11-15T02:30:28.319Z,61.60
2022-11-15T02:33:32.942Z,61.63
2022-11-15T02:35:59.791Z,61.84
2022-11-15T02:38:47.823Z,61.41
2022-11-15T02:41:18.157Z,62.03
2022-11-15T02:44:00.223Z,61.53
2022-11-15T02:46:55.630Z,61.69
2022-11-15T02:49:24.146Z,61.91
2022-11-15T02:51:53.389Z,61.52
2022-11-15T02:54:27.189Z,61.09
2022-11-15T02:56:57.015Z,61.27
2022-11-15T02:59:40.716Z,61.59
2022-11-15T03:02:28.937Z,61.71
2022-11-15T03:05:06.099Z,62.97
2022-11-15T03:08:10.678Z,62.61
2022-11-15T03:10:51.727Z,62.89
2022-11-15T03:13:32.278Z,63.24
2022-11-15T03:16:03.877Z,64.05
2022-11-15T03:18:36.886Z,63.97
2022-11-15T03:21:07.843Z,63.64
2022-11-15T03:23:37.012Z,63.29
2022-11-15T03:26:08.169Z,63.93
2022-11-15T03:28:39.986Z,63.96
2022-11-15T03:31:27.685Z,65.06
2022-11-15T03:33:58.319Z,63.94
2022-11-15T03:36:26.161Z,63.98
2022-11-15T03:38:57.676Z,64.24
2022-11-15T03:41:36.285Z,64.75
2022-11-15T03:44:13.217Z,64.55
2022-11-15T03:46:49.366Z,64.20
2022-11-15T03:49:23.544Z,65.51
2022-11-15T03:51:50.142Z,66.12
2022-11-15T03:54:16.867Z,67.66
2022-11-15T03:56:43.424Z,68.34
2022-11-15T03:59:11.094Z,68.73
2022-11-15T04:01:37.789Z,69.54
2022-11-15T04:04:04.535Z,70.18
2022-11-15T04:06:31.123Z,69.84
2022-11-15T04:08:57.729Z,69.27
2022-11-15T04:11:24.366Z,68.33
2022-11-15T04:13:50.989Z,68.36
2022-11-15T04:16:17.640Z,68.48
2022-11-15T04:18:44.308Z,68.28
2022-11-15T04:21:29.651Z,69.51
2022-11-15T04:24:14.877Z,69.76
2022-11-15T04:26:41.537Z,69.79
2022-11-15T04:29:40.733Z,69.30
2022-11-15T04:32:08.100Z,71.57
2022-11-15T04:34:35.370Z,70.83
2022-11-15T04:37:14.106Z,70.29
2022-11-15T04:39:41.727Z,69.17
2022-11-15T04:42:11.721Z,68.98
2022-11-15T04:44:38.520Z,69.05
2022-11-15T04:47:05.454Z,70.41
2022-11-15T04:49:32.087Z,70.29
2022-11-15T04:51:58.787Z,70.31
2022-11-15T04:54:25.458Z,70.59
2022-11-15T04:56:52.074Z,70.74
2022-11-15T04:59:18.790Z,71.39
2022-11-15T05:01:45.534Z,71.24
2022-11-15T05:04:22.601Z,71.33
2022-11-15T05:06:51.533Z,71.76
2022-11-15T05:09:25.598Z,71.43
2022-11-15T05:11:58.464Z,72.04
2022-11-15T05:14:25.642Z,72.66
2022-11-15T05:16:52.288Z,72.35
2022-11-15T05:19:18.847Z,72.35
2022-11-15T05:21:45.404Z,72.04
2022-11-15T05:24:12.334Z,72.06
2022-11-15T05:26:38.953Z,71.71
2022-11-15T05:29:05.588Z,72.08
2022-11-15T05:31:34.404Z,72.44
2022-11-15T05:34:06.778Z,72.21
2022-11-15T05:36:47.194Z,71.53
2022-11-15T05:39:13.898Z,71.96
2022-11-15T05:41:53.917Z,71.46
2022-11-15T05:44:23.613Z,72.18
2022-11-15T05:46:54.564Z,71.41
2022-11-15T05:49:24.831Z,71.20
2022-11-15T05:51:53.083Z,71.53
2022-11-15T05:54:22.571Z,71.32
2022-11-15T05:56:50.069Z,71.15
2022-11-15T05:59:17.865Z,71.28
2022-11-15T06:01:44.584Z,70.64
2022-11-15T06:04:11.301Z,70.82
2022-11-15T06:06:37.907Z,71.07
2022-11-15T06:09:04.533Z,71.62
2022-11-15T06:11:31.115Z,71.51
2022-11-15T06:13:57.668Z,72.02
2022-11-15T06:16:24.315Z,71.94
2022-11-15T06:18:50.911Z,72.22
2022-11-15T06:21:17.481Z,71.95
2022-11-15T06:23:44.086Z,71.55
2022-11-15T06:26:10.675Z,71.48
2022-11-15T06:28:37.347Z,69.90
2022-11-15T06:31:09.742Z,70.92
2022-11-15T06:33:36.511Z,70.93
2022-11-15T06:36:11.969Z,70.03
2022-11-15T06:38:41.263Z,70.33
2022-11-15T06:41:10.416Z,71.17
2022-11-15T06:43:37.607Z,71.50
2022-11-15T06:46:05.587Z,72.12
2022-11-15T06:48:33.821Z,71.66
2022-11-15T06:51:02.151Z,71.86
2022-11-15T06:53:30.861Z,71.41
2022-11-15T06:56:06.087Z,71.34
2022-11-15T06:58:32.794Z,72.20
2022-11-15T07:01:02.764Z,72.62
2022-11-15T07:03:29.735Z,72.49
2022-11-15T07:06:02.701Z,71.65
2022-11-15T07:08:33.691Z,71.30
2022-11-15T07:11:02.815Z,69.63
2022-11-15T07:13:34.330Z,70.18
2022-11-15T07:16:06.899Z,70.70
2022-11-15T07:18:38.363Z,72.04
2022-11-15T07:21:06.778Z,71.73
2022-11-15T07:23:34.167Z,71.97
2022-11-15T07:26:02.719Z,72.59
2022-11-15T07:28:29.410Z,70.73
2022-11-15T07:30:56.227Z,71.10
2022-11-15T07:33:23.023Z,71.04
2022-11-15T07:35:49.584Z,70.81
2022-11-15T07:38:20.562Z,72.03
2022-11-15T07:40:47.836Z,72.64
2022-11-15T07:43:14.641Z,71.51
2022-11-15T07:45:46.013Z,71.39
2022-11-15T07:48:13.174Z,71.72
2022-11-15T07:50:43.402Z,71.57
2022-11-15T07:53:11.574Z,71.80
2022-11-15T07:55:38.634Z,71.09
2022-11-15T07:58:10.877Z,70.85
2022-11-15T08:00:38.476Z,70.67
2022-11-15T08:03:09.318Z,70.59
2022-11-15T08:05:37.145Z,70.08
2022-11-15T08:08:04.574Z,69.39
2022-11-15T08:10:32.603Z,70.22
2022-11-15T08:13:04.581Z,70.26
2022-11-15T08:15:31.867Z,69.80
2022-11-15T08:18:00.233Z,71.38
2022-11-15T08:20:30.748Z,71.90
2022-11-15T08:23:02.292Z,71.22
2022-11-15T08:25:30.411Z,70.96
2022-11-15T08:27:59.437Z,70.54
2022-11-15T08:30:26.451Z,71.76
2022-11-15T08:32:54.353Z,72.25
2022-11-15T08:35:26.299Z,70.69
2022-11-15T08:37:55.812Z,69.02
2022-11-15T08:40:23.791Z,68.60
2022-11-15T08:42:50.448Z,69.21
2022-11-15T08:45:17.244Z,70.20
2022-11-15T08:47:43.964Z,70.72
2022-11-15T08:50:10.936Z,70.57
2022-11-15T08:52:37.535Z,69.16
2022-11-15T08:55:04.460Z,67.68
2022-11-15T08:57:34.195Z,67.48
2022-11-15T09:00:00.797Z,67.80
2022-11-15T09:02:27.443Z,70.65
2022-11-15T09:04:53.998Z,68.92
2022-11-15T09:07:20.685Z,68.73
2022-11-15T09:09:47.330Z,68.97
2022-11-15T09:12:14.084Z,70.37
2022-11-15T09:14:40.659Z,69.82
2022-11-15T09:17:10.752Z,69.82
2022-11-15T09:19:38.071Z,69.08
2022-11-15T09:22:07.719Z,69.29
2022-11-15T09:24:34.671Z,69.24
2022-11-15T09:27:01.439Z,69.97
2022-11-15T09:29:28.082Z,69.89
2022-11-15T09:31:54.697Z,69.51
2022-11-15T09:34:22.059Z,71.02
2022-11-15T09:36:48.631Z,68.81
2022-11-15T09:39:15.229Z,68.33
2022-11-15T09:41:53.863Z,67.14
2022-11-15T09:44:57.256Z,67.77
2022-11-15T09:47:29.953Z,68.52
2022-11-15T09:49:59.943Z,70.00
2022-11-15T09:52:26.643Z,69.58
2022-11-15T09:54:55.571Z,69.75
2022-11-15T09:57:49.479Z,67.50
2022-11-15T10:00:47.107Z,66.04
2022-11-15T10:03:28.560Z,66.61
2022-11-15T10:05:59.145Z,66.86
2022-11-15T10:09:10.732Z,66.75
2022-11-15T10:11:39.476Z,67.69
2022-11-15T10:14:19.845Z,67.38
2022-11-15T10:17:04.802Z,66.60
2022-11-15T10:19:31.287Z,66.02
2022-11-15T10:22:00.566Z,65.43
2022-11-15T10:24:34.105Z,64.99
2022-11-15T10:27:02.976Z,64.41
2022-11-15T10:29:29.555Z,65.93
2022-11-15T10:31:56.138Z,66.10
2022-11-15T10:34:24.809Z,68.24
2022-11-15T10:36:59.941Z,65.58
2022-11-15T10:39:26.866Z,65.13
2022-11-15T10:41:53.631Z,64.99
2022-11-15T10:44:20.280Z,63.87
2022-11-15T10:46:56.197Z,62.63
2022-11-15T10:49:31.045Z,63.92
2022-11-15T10:52:16.885Z,64.36
2022-11-15T10:54:57.152Z,64.78
2022-11-15T10:57:28.342Z,65.25
2022-11-15T11:00:06.555Z,65.31
2022-11-15T11:02:37.836Z,63.12
2022-11-15T11:05:41.070Z,63.11
2022-11-15T11:08:12.049Z,63.56
2022-11-15T11:10:51.742Z,63.49
2022-11-15T11:13:25.688Z,63.21
2022-11-15T11:16:05.386Z,63.14
2022-11-15T11:18:55.030Z,63.92
2022-11-15T11:21:42.308Z,63.03
2022-11-15T11:24:17.205Z,63.20
2022-11-15T11:27:06.280Z,62.50
2022-11-15T11:29:51.683Z,62.38
2022-11-15T11:32:33.072Z,62.43
2022-11-15T11:35:25.009Z,62.32
2022-11-15T11:37:55.105Z,62.27
2022-11-15T11:40:36.247Z,61.90
2022-11-15T11:43:45.935Z,61.34
2022-11-15T11:46:27.904Z,61.18
2022-11-15T11:49:04.596Z,61.61
2022-11-15T11:51:39.816Z,61.06
2022-11-15T11:54:18.894Z,60.78
2022-11-15T11:56:46.722Z,60.43
2022-11-15T11:59:37.356Z,61.60
2022-11-15T12:02:16.346Z,60.96
2022-11-15T12:04:50.935Z,60.45
2022-11-15T12:07:26.616Z,60.19
2022-11-15T12:10:17.151Z,60.54
2022-11-15T12:21:06.763Z,59.89
2022-11-15T12:23:43.575Z,60.28
2022-11-15T12:26:26.187Z,59.80
2022-11-15T12:29:07.838Z,58.17
2022-11-15T12:31:35.504Z,59.63
2022-11-15T12:34:14.475Z,58.81
2022-11-15T12:36:45.254Z,58.40
2022-11-15T12:39:13.417Z,58.25
2022-11-15T12:41:56.527Z,58.38
2022-11-15T12:44:32.342Z,58.24
2022-11-15T12:46:58.916Z,59.24
2022-11-15T12:49:28.301Z,58.63
2022-11-15T12:51:57.930Z,57.86
2022-11-15T12:54:24.504Z,57.31
2022-11-15T12:57:09.230Z,57.04
2022-11-15T13:00:13.654Z,57.83
2022-11-15T13:02:46.464Z,57.02
2022-11-15T13:05:16.494Z,56.48
2022-11-15T13:07:43.099Z,58.58
2022-11-15T13:10:28.541Z,57.36
2022-11-15T13:13:03.553Z,57.53
2022-11-15T13:16:00.992Z,57.36
2022-11-15T13:18:29.938Z,57.60
2022-11-15T13:21:02.181Z,57.30
2022-11-15T13:23:29.640Z,56.76
2022-11-15T13:26:11.861Z,57.19
2022-11-15T13:28:51.907Z,56.84
2022-11-15T13:31:38.725Z,56.82
2022-11-15T13:34:50.535Z,56.42
2022-11-15T13:37:20.766Z,56.51
2022-11-15T13:39:48.854Z,56.33
2022-11-15T13:42:20.633Z,56.67
2022-11-15T13:44:58.530Z,56.27
2022-11-15T13:47:28.400Z,56.69
2022-11-15T13:49:58.162Z,56.78
2022-11-15T13:52:32.051Z,56.58
2022-11-15T13:55:00.753Z,56.92
2022-11-15T13:57:35.294Z,56.14
2022-11-15T14:00:23.159Z,56.18
2022-11-15T14:02:49.848Z,56.60
2022-11-15T14:05:24.403Z,56.44
2022-11-15T14:08:20.537Z,57.15
2022-11-15T14:10:47.249Z,57.60
2022-11-15T14:13:31.956Z,58.90
2022-11-15T14:16:22.407Z,58.79
2022-11-15T14:18:53.580Z,58.45
2022-11-15T14:21:21.328Z,57.78
2022-11-15T14:23:49.983Z,57.79
2022-11-15T14:26:34.660Z,57.86
2022-11-15T14:29:30.076Z,57.82
2022-11-15T14:32:16.424Z,58.10
2022-11-15T14:34:43.640Z,58.18
2022-11-15T14:37:21.552Z,58.26
2022-11-15T14:39:48.276Z,58.12
2022-11-15T14:42:14.874Z,58.67
2022-11-15T14:44:45.779Z,58.40
2022-11-15T14:47:13.060Z,58.81
2022-11-15T14:49:39.726Z,58.87
2022-11-15T14:52:35.387Z,59.78
2022-11-15T14:55:03.866Z,60.04
2022-11-15T14:57:31.714Z,61.00
2022-11-15T14:59:58.400Z,61.36
2022-11-15T15:02:27.812Z,61.33
2022-11-15T15:04:54.981Z,61.63
2022-11-15T15:07:22.191Z,61.53
2022-11-15T15:09:48.906Z,62.06
2022-11-15T15:12:21.709Z,62.06
2022-11-15T15:14:50.320Z,61.75
2022-11-15T15:17:18.240Z,62.42
2022-11-15T15:19:44.916Z,62.30
2022-11-15T15:22:16.978Z,61.86
2022-11-15T15:24:44.556Z,61.28
2022-11-15T15:27:11.753Z,61.06
2022-11-15T15:29:38.607Z,60.63
2022-11-15T15:32:06.447Z,60.63
2022-11-15T15:34:33.542Z,60.34
2022-11-15T15:37:30.745Z,60.91
2022-11-15T15:39:57.824Z,60.54
2022-11-15T15:42:24.703Z,60.74
2022-11-15T15:44:51.988Z,60.48
2022-11-15T15:47:23.506Z,60.60
2022-11-15T15:49:51.352Z,60.54
2022-11-15T15:52:18.246Z,60.31
2022-11-15T15:54:45.114Z,60.63
2022-11-15T15:57:15.332Z,60.33
2022-11-15T15:59:42.206Z,60.58
2022-11-15T16:02:15.386Z,61.35
2022-11-15T16:04:41.994Z,61.00
2022-11-15T16:07:22.198Z,60.58
2022-11-15T16:10:00.956Z,60.53
2022-11-15T16:12:34.061Z,60.58
2022-11-15T16:15:01.677Z,61.06
2022-11-15T16:17:34.466Z,61.01
2022-11-15T16:20:01.429Z,60.76
2022-11-15T16:22:30.218Z,60.74
2022-11-15T16:24:57.389Z,60.68
2022-11-15T16:27:24.675Z,60.44
2022-11-15T16:29:51.425Z,60.55
2022-11-15T16:32:18.212Z,61.59
2022-11-15T16:34:48.800Z,61.45
2022-11-15T16:37:25.628Z,60.88
2022-11-15T16:39:53.978Z,61.17
2022-11-15T16:42:23.818Z,61.03
2022-11-15T16:44:50.436Z,61.36
2022-11-15T16:47:19.714Z,61.17
2022-11-15T16:49:46.907Z,61.06
2022-11-15T16:52:15.501Z,61.12
2022-11-15T16:54:45.634Z,60.86
2022-11-15T16:57:12.268Z,60.62
2022-11-15T16:59:39.025Z,60.49
2022-11-15T17:02:12.447Z,60.34
2022-11-15T17:04:39.331Z,60.61
2022-11-15T17:07:06.931Z,60.72
2022-11-15T17:09:34.348Z,60.72
2022-11-15T17:12:00.934Z,60.70
2022-11-15T17:14:27.608Z,60.52
2022-11-15T17:16:57.246Z,60.65
2022-11-15T17:19:24.001Z,62.86
2022-11-15T17:21:50.748Z,62.00
2022-11-15T17:24:17.839Z,61.72
2022-11-15T17:26:44.506Z,61.40
2022-11-15T17:29:11.352Z,60.96
2022-11-15T17:31:38.869Z,61.18
2022-11-15T17:34:06.848Z,60.81
2022-11-15T17:36:34.439Z,61.21
2022-11-15T17:39:01.284Z,61.19
2022-11-15T17:41:29.140Z,61.87
2022-11-15T17:44:00.142Z,61.44
2022-11-15T17:46:28.151Z,61.14
2022-11-15T17:48:56.098Z,61.07
2022-11-15T17:51:24.216Z,60.82
2022-11-15T17:53:51.797Z,60.81
2022-11-15T17:56:23.553Z,61.02
2022-11-15T17:58:52.329Z,61.62
2022-11-15T18:01:29.628Z,62.30
2022-11-15T18:03:57.457Z,62.17
2022-11-15T18:06:25.315Z,61.67
2022-11-15T18:08:53.734Z,62.41
2022-11-15T18:11:23.940Z,61.90
2022-11-15T18:13:53.795Z,61.48
2022-11-15T18:16:24.758Z,61.50
2022-11-15T18:18:51.552Z,61.57
2022-11-15T18:21:21.754Z,61.82
2022-11-15T18:23:52.652Z,61.36
2022-11-15T18:26:23.042Z,61.14
2022-11-15T18:28:53.955Z,61.35
2022-11-15T18:31:26.384Z,61.35
2022-11-15T18:33:54.188Z,62.00
2022-11-15T18:36:24.644Z,61.65
2022-11-15T18:38:58.923Z,62.22
2022-11-15T18:41:28.514Z,61.78
2022-11-15T18:43:56.812Z,61.28
2022-11-15T18:46:25.546Z,61.22
2022-11-15T18:48:56.516Z,61.28
2022-11-15T18:51:26.112Z,60.96
2022-11-15T18:53:54.630Z,61.31
2022-11-15T18:56:23.278Z,61.23
2022-11-15T18:58:55.578Z,61.35
2022-11-15T19:01:30.696Z,61.14
2022-11-15T19:04:06.786Z,61.69
2022-11-15T19:06:36.761Z,61.70
2022-11-15T19:09:06.488Z,61.84
2022-11-15T19:11:37.059Z,61.67
2022-11-15T19:14:08.070Z,61.15
2022-11-15T19:16:37.790Z,61.81
2022-11-15T19:19:11.710Z,61.42
2022-11-15T19:21:38.439Z,61.61
2022-11-15T19:24:05.591Z,62.66
2022-11-15T19:26:32.567Z,62.13
2022-11-15T19:29:01.561Z,61.96
2022-11-15T19:31:29.935Z,61.88
2022-11-15T19:34:04.619Z,61.70
2022-11-15T19:36:36.708Z,61.98
2022-11-15T19:39:08.464Z,62.54
2022-11-15T19:41:37.956Z,62.38
2022-11-15T19:44:05.808Z,62.80
2022-11-15T19:46:32.552Z,63.34
2022-11-15T19:48:59.251Z,63.63
2022-11-15T19:51:27.734Z,63.39
2022-11-15T19:53:56.546Z,63.37
2022-11-15T19:56:24.217Z,63.55
2022-11-15T19:58:54.167Z,63.21
2022-11-15T20:01:22.203Z,64.78
2022-11-15T20:03:50.240Z,64.54
2022-11-15T20:06:22.646Z,63.73
2022-11-15T20:08:50.023Z,65.56
2022-11-15T20:11:17.953Z,65.13
2022-11-15T20:13:45.494Z,64.99
2022-11-15T20:16:21.350Z,64.30
2022-11-15T20:18:49.569Z,65.33
2022-11-15T20:21:16.925Z,65.31
2022-11-15T20:23:43.939Z,64.45
2022-11-15T20:26:11.809Z,63.82
2022-11-15T20:28:39.666Z,64.02
2022-11-15T20:31:07.472Z,63.52
2022-11-15T20:33:34.879Z,63.26
2022-11-15T20:36:11.035Z,62.91
2022-11-15T20:38:38.247Z,63.04
2022-11-15T20:41:05.535Z,63.10
2022-11-15T20:43:32.844Z,63.03
2022-11-15T20:45:59.493Z,63.18
2022-11-15T20:48:26.222Z,63.15
2022-11-15T20:51:07.242Z,62.34
2022-11-15T20:53:34.945Z,62.72
2022-11-15T20:56:11.330Z,62.66
2022-11-15T20:58:38.283Z,63.15
2022-11-15T21:01:07.009Z,63.75
2022-11-15T21:03:34.039Z,62.93
2022-11-15T21:06:01.043Z,63.20
2022-11-15T21:08:27.687Z,63.04
2022-11-15T21:11:13.337Z,62.92
2022-11-15T21:13:40.081Z,63.03
2022-11-15T21:16:07.208Z,62.96
2022-11-15T21:18:34.176Z,62.88
2022-11-15T21:21:07.461Z,62.47
2022-11-15T21:23:34.239Z,63.02
2022-11-15T21:26:00.896Z,64.63
2022-11-15T21:28:27.590Z,65.27
2022-11-15T21:30:56.517Z,64.42
2022-11-15T21:33:24.018Z,64.14
2022-11-15T21:35:51.762Z,64.35
2022-11-15T21:38:18.766Z,64.91
2022-11-15T21:40:45.597Z,64.05
2022-11-15T21:43:12.240Z,64.46
2022-11-15T21:45:38.863Z,66.80
2022-11-15T21:48:06.104Z,66.01
2022-11-15T21:50:32.746Z,65.31
2022-11-15T21:52:59.356Z,65.01
2022-11-15T21:55:25.967Z,64.76
2022-11-15T21:57:52.549Z,65.84
2022-11-15T22:00:38.056Z,65.38
2022-11-15T22:03:04.632Z,64.69
2022-11-15T22:05:31.235Z,65.31
2022-11-15T22:07:57.813Z,65.12
2022-11-15T22:10:24.417Z,64.62
2022-11-15T22:12:51.006Z,64.80
2022-11-15T22:15:17.619Z,64.95
2022-11-15T22:17:59.253Z,64.99
2022-11-15T22:20:44.057Z,64.97
2022-11-15T22:23:11.699Z,65.53
2022-11-15T22:25:38.449Z,64.73
2022-11-15T22:28:05.288Z,64.56
2022-11-15T22:30:31.918Z,64.73
2022-11-15T22:32:58.587Z,64.37
2022-11-15T22:35:25.201Z,64.16
2022-11-15T22:37:52.888Z,64.25
2022-11-15T22:40:19.652Z,64.51
2022-11-15T22:42:46.285Z,64.72
2022-11-15T22:45:12.995Z,64.78
2022-11-15T22:47:39.641Z,65.80
2022-11-15T22:50:06.733Z,66.52
2022-11-15T22:52:33.426Z,66.39
2022-11-15T22:55:00.072Z,67.42
2022-11-15T22:57:26.739Z,66.32
2022-11-15T22:59:53.357Z,65.96
2022-11-15T23:02:19.950Z,64.46
2022-11-15T23:04:46.713Z,65.26
2022-11-15T23:07:13.888Z,66.47
2022-11-15T23:09:40.555Z,66.23
2022-11-15T23:12:27.322Z,67.17
2022-11-15T23:14:53.982Z,65.97
2022-11-15T23:17:20.615Z,66.30
2022-11-15T23:19:47.500Z,66.49
2022-11-15T23:22:32.636Z,65.32
2022-11-15T23:24:59.695Z,66.50
2022-11-15T23:27:26.390Z,67.46
2022-11-15T23:30:11.532Z,66.54
2022-11-15T23:32:56.450Z,66.47
2022-11-15T23:35:23.096Z,66.97
2022-11-15T23:37:49.750Z,66.53
2022-11-15T23:40:16.471Z,66.61
2022-11-15T23:42:43.065Z,66.51
2022-11-15T23:45:09.973Z,66.23
2022-11-15T23:47:36.671Z,66.67
2022-11-15T23:50:04.099Z,66.95
2022-11-15T23:52:30.735Z,66.54
2022-11-15T23:54:57.412Z,66.57
2022-11-15T23:57:24.039Z,67.86
2022-11-15T23:59:50.675Z,67.64
